Edmeston, New York
Current Conditions -  °F | °C
As of 9:16 PM on Tuesday 21 Oct 2014 (Local Time) from KRME Reporting Station
Overcast Overcast  
Wind Chill: 51°   Ceiling: 4500
Heat Index: 51°   Visibility: 10mi
Dew Point: 47°   Wind: 3mph
Humidity: 86%   Direction: 110°ESE
Pressure: 30"   Gusts: NA
Location:  42.7°N, 75.24°W
Report Text: KRME 220116Z AUTO 11003KT 10SM SCT026 BKN045 OVC055 11/08 A3000 RMK AO2 T01060083
Loading
Personal Weather Stations






























Interactive Weather Map
Tropical Storm Tracking
New forecast layout! Learn more

10-Day Weather Forecast

Advertisements
Track Severe Weather on mobile